sensor_id;sensor_type;location;lat;lon;timestamp;pressure;altitude;pressure_sealevel;temperature;humidity
10474;BME280;5284;50.446;7.904;2023-04-25T00:03:44;97765.09;;;7.20;100.00
10474;BME280;5284;50.446;7.904;2023-04-25T00:08:47;97760.41;;;7.13;100.00
10474;BME280;5284;50.446;7.904;2023-04-25T00:13:50;97769.34;;;7.12;100.00
10474;BME280;5284;50.446;7.904;2023-04-25T00:18:55;97756.75;;;7.04;100.00
10474;BME280;5284;50.446;7.904;2023-04-25T00:23:58;97765.44;;;6.95;100.00
10474;BME280;5284;50.446;7.904;2023-04-25T00:29:01;97767.78;;;6.89;100.00
10474;BME280;5284;50.446;7.904;2023-04-25T00:34:05;97763.81;;;6.83;100.00
10474;BME280;5284;50.446;7.904;2023-04-25T00:39:09;97765.56;;;6.73;100.00
10474;BME280;5284;50.446;7.904;2023-04-25T00:44:12;97765.22;;;6.67;100.00
10474;BME280;5284;50.446;7.904;2023-04-25T00:49:17;97767.50;;;6.60;100.00
10474;BME280;5284;50.446;7.904;2023-04-25T00:54:20;97762.00;;;6.52;100.00
10474;BME280;5284;50.446;7.904;2023-04-25T00:59:23;97762.50;;;6.46;100.00
10474;BME280;5284;50.446;7.904;2023-04-25T01:04:28;97757.47;;;6.43;100.00
10474;BME280;5284;50.446;7.904;2023-04-25T01:09:31;97757.09;;;6.37;100.00
10474;BME280;5284;50.446;7.904;2023-04-25T01:14:34;97750.63;;;6.30;100.00
10474;BME280;5284;50.446;7.904;2023-04-25T01:19:41;97756.91;;;6.18;100.00
10474;BME280;5284;50.446;7.904;2023-04-25T01:24:46;97757.88;;;6.06;100.00
10474;BME280;5284;50.446;7.904;2023-04-25T01:29:49;97765.72;;;5.97;100.00
10474;BME280;5284;50.446;7.904;2023-04-25T01:34:53;97765.34;;;5.90;100.00
10474;BME280;5284;50.446;7.904;2023-04-25T01:39:57;97753.81;;;5.80;100.00
10474;BME280;5284;50.446;7.904;2023-04-25T01:45:00;97761.94;;;5.77;100.00
10474;BME280;5284;50.446;7.904;2023-04-25T01:50:04;97769.41;;;5.72;100.00
10474;BME280;5284;50.446;7.904;2023-04-25T01:55:10;97767.38;;;5.65;100.00
10474;BME280;5284;50.446;7.904;2023-04-25T02:00:19;97769.75;;;5.57;100.00
10474;BME280;5284;50.446;7.904;2023-04-25T02:05:22;97774.69;;;5.50;100.00
10474;BME280;5284;50.446;7.904;2023-04-25T02:10:27;97780.66;;;5.41;100.00
10474;BME280;5284;50.446;7.904;2023-04-25T02:15:52;97774.63;;;5.28;100.00
10474;BME280;5284;50.446;7.904;2023-04-25T02:20:55;97772.94;;;5.16;100.00
10474;BME280;5284;50.446;7.904;2023-04-25T02:25:59;97762.31;;;5.05;100.00
10474;BME280;5284;50.446;7.904;2023-04-25T02:31:02;97769.25;;;4.95;100.00
10474;BME280;5284;50.446;7.904;2023-04-25T02:36:06;97773.19;;;4.90;100.00
10474;BME280;5284;50.446;7.904;2023-04-25T02:41:10;97776.19;;;4.85;100.00
10474;BME280;5284;50.446;7.904;2023-04-25T02:46:13;97774.97;;;4.78;100.00
10474;BME280;5284;50.446;7.904;2023-04-25T02:51:29;97767.88;;;4.79;100.00
10474;BME280;5284;50.446;7.904;2023-04-25T02:56:33;97769.91;;;4.75;100.00
10474;BME280;5284;50.446;7.904;2023-04-25T03:01:37;97775.81;;;4.79;100.00
10474;BME280;5284;50.446;7.904;2023-04-25T03:06:40;97780.47;;;4.75;100.00
10474;BME280;5284;50.446;7.904;2023-04-25T03:11:45;97785.97;;;4.72;100.00
10474;BME280;5284;50.446;7.904;2023-04-25T03:16:48;97786.91;;;4.71;100.00
10474;BME280;5284;50.446;7.904;2023-04-25T03:21:51;97788.75;;;4.71;100.00
10474;BME280;5284;50.446;7.904;2023-04-25T03:26:56;97786.31;;;4.68;100.00
10474;BME280;5284;50.446;7.904;2023-04-25T03:31:59;97780.19;;;4.67;100.00
10474;BME280;5284;50.446;7.904;2023-04-25T03:37:02;97786.91;;;4.71;100.00
10474;BME280;5284;50.446;7.904;2023-04-25T03:42:11;97792.84;;;4.75;100.00
10474;BME280;5284;50.446;7.904;2023-04-25T03:47:14;97783.84;;;4.77;100.00
10474;BME280;5284;50.446;7.904;2023-04-25T03:52:17;97796.31;;;4.75;100.00
10474;BME280;5284;50.446;7.904;2023-04-25T03:57:22;97807.81;;;4.74;100.00
10474;BME280;5284;50.446;7.904;2023-04-25T04:02:27;97806.38;;;4.70;100.00
10474;BME280;5284;50.446;7.904;2023-04-25T04:07:32;97808.28;;;4.68;100.00
10474;BME280;5284;50.446;7.904;2023-04-25T04:12:40;97818.09;;;4.66;100.00
10474;BME280;5284;50.446;7.904;2023-04-25T04:17:42;97813.69;;;4.67;100.00
10474;BME280;5284;50.446;7.904;2023-04-25T04:22:46;97807.22;;;4.71;100.00
10474;BME280;5284;50.446;7.904;2023-04-25T04:27:52;97805.88;;;4.65;100.00
10474;BME280;5284;50.446;7.904;2023-04-25T04:33:02;97799.13;;;4.61;100.00
10474;BME280;5284;50.446;7.904;2023-04-25T04:38:06;97803.13;;;4.67;100.00
10474;BME280;5284;50.446;7.904;2023-04-25T04:43:14;97810.69;;;4.71;100.00
10474;BME280;5284;50.446;7.904;2023-04-25T04:48:36;97822.50;;;4.78;100.00
10474;BME280;5284;50.446;7.904;2023-04-25T04:54:16;97823.59;;;4.87;100.00
10474;BME280;5284;50.446;7.904;2023-04-25T04:59:55;97830.16;;;4.94;100.00
10474;BME280;5284;50.446;7.904;2023-04-25T05:05:17;97836.19;;;5.07;100.00
10474;BME280;5284;50.446;7.904;2023-04-25T05:10:33;97841.78;;;5.26;100.00
10474;BME280;5284;50.446;7.904;2023-04-25T05:15:54;97845.22;;;5.50;100.00
10474;BME280;5284;50.446;7.904;2023-04-25T05:21:23;97847.78;;;5.73;100.00
10474;BME280;5284;50.446;7.904;2023-04-25T05:26:50;97862.63;;;5.87;100.00
10474;BME280;5284;50.446;7.904;2023-04-25T05:31:55;97866.47;;;5.94;100.00
10474;BME280;5284;50.446;7.904;2023-04-25T05:36:58;97864.31;;;5.88;100.00
10474;BME280;5284;50.446;7.904;2023-04-25T05:42:04;97865.91;;;6.01;100.00
10474;BME280;5284;50.446;7.904;2023-04-25T05:47:38;97865.91;;;6.12;100.00
10474;BME280;5284;50.446;7.904;2023-04-25T05:52:47;97869.88;;;6.17;100.00
10474;BME280;5284;50.446;7.904;2023-04-25T05:58:05;97870.00;;;6.38;100.00
10474;BME280;5284;50.446;7.904;2023-04-25T06:03:11;97874.00;;;6.32;100.00
10474;BME280;5284;50.446;7.904;2023-04-25T06:08:20;97866.38;;;6.50;100.00
10474;BME280;5284;50.446;7.904;2023-04-25T06:13:23;97867.09;;;6.63;100.00
10474;BME280;5284;50.446;7.904;2023-04-25T06:18:27;97862.38;;;6.77;100.00
10474;BME280;5284;50.446;7.904;2023-04-25T06:23:30;97877.91;;;6.82;100.00
10474;BME280;5284;50.446;7.904;2023-04-25T06:28:40;97883.09;;;6.72;100.00
10474;BME280;5284;50.446;7.904;2023-04-25T06:33:45;97896.91;;;6.76;100.00
10474;BME280;5284;50.446;7.904;2023-04-25T06:38:51;97903.50;;;7.03;100.00
10474;BME280;5284;50.446;7.904;2023-04-25T06:43:55;97904.59;;;7.01;100.00
10474;BME280;5284;50.446;7.904;2023-04-25T06:49:08;97908.47;;;6.86;100.00
10474;BME280;5284;50.446;7.904;2023-04-25T06:54:12;97904.72;;;6.88;100.00
10474;BME280;5284;50.446;7.904;2023-04-25T06:59:24;97908.72;;;6.83;100.00
10474;BME280;5284;50.446;7.904;2023-04-25T07:04:29;97920.25;;;7.04;100.00
10474;BME280;5284;50.446;7.904;2023-04-25T07:09:33;97917.72;;;7.02;100.00
10474;BME280;5284;50.446;7.904;2023-04-25T07:14:36;97932.78;;;7.02;100.00
10474;BME280;5284;50.446;7.904;2023-04-25T07:19:44;97935.38;;;7.13;100.00
10474;BME280;5284;50.446;7.904;2023-04-25T07:24:47;97937.38;;;7.31;100.00
10474;BME280;5284;50.446;7.904;2023-04-25T07:29:54;97941.28;;;7.58;100.00
10474;BME280;5284;50.446;7.904;2023-04-25T07:34:59;97940.25;;;7.70;100.00
10474;BME280;5284;50.446;7.904;2023-04-25T07:40:04;97951.47;;;7.74;100.00
10474;BME280;5284;50.446;7.904;2023-04-25T07:45:10;97950.81;;;7.81;100.00
10474;BME280;5284;50.446;7.904;2023-04-25T07:50:16;97946.81;;;8.07;100.00
10474;BME280;5284;50.446;7.904;2023-04-25T07:55:21;97962.91;;;8.47;100.00
10474;BME280;5284;50.446;7.904;2023-04-25T08:00:48;97953.50;;;9.12;100.00
10474;BME280;5284;50.446;7.904;2023-04-25T08:06:11;97967.56;;;9.33;98.23
10474;BME280;5284;50.446;7.904;2023-04-25T08:11:23;97977.28;;;9.62;97.66
10474;BME280;5284;50.446;7.904;2023-04-25T08:16:26;97985.81;;;9.56;97.33
10474;BME280;5284;50.446;7.904;2023-04-25T08:21:33;97987.09;;;9.62;91.75
10474;BME280;5284;50.446;7.904;2023-04-25T08:26:40;97994.81;;;9.65;91.93
10474;BME280;5284;50.446;7.904;2023-04-25T08:31:48;98000.63;;;9.40;92.26
10474;BME280;5284;50.446;7.904;2023-04-25T08:36:54;97998.72;;;9.51;92.29
10474;BME280;5284;50.446;7.904;2023-04-25T08:42:08;98002.53;;;9.68;90.79
10474;BME280;5284;50.446;7.904;2023-04-25T08:47:12;98000.84;;;9.67;85.08
10474;BME280;5284;50.446;7.904;2023-04-25T08:52:30;98015.41;;;9.63;86.88
10474;BME280;5284;50.446;7.904;2023-04-25T08:57:35;98020.88;;;9.71;89.14
10474;BME280;5284;50.446;7.904;2023-04-25T09:02:40;98022.69;;;9.80;87.91
10474;BME280;5284;50.446;7.904;2023-04-25T09:07:46;98035.38;;;10.25;85.55
10474;BME280;5284;50.446;7.904;2023-04-25T09:13:05;98044.66;;;10.40;77.82
10474;BME280;5284;50.446;7.904;2023-04-25T09:18:23;98045.75;;;10.57;78.09
10474;BME280;5284;50.446;7.904;2023-04-25T09:23:39;98065.06;;;9.92;79.17
10474;BME280;5284;50.446;7.904;2023-04-25T09:28:43;98068.09;;;9.69;80.38
10474;BME280;5284;50.446;7.904;2023-04-25T09:33:58;98079.50;;;9.90;77.77
10474;BME280;5284;50.446;7.904;2023-04-25T09:39:14;98081.66;;;10.24;77.62
10474;BME280;5284;50.446;7.904;2023-04-25T09:44:27;98095.91;;;9.95;76.09
10474;BME280;5284;50.446;7.904;2023-04-25T09:49:32;98100.22;;;9.37;74.05
10474;BME280;5284;50.446;7.904;2023-04-25T09:54:41;98101.59;;;9.32;75.62
10474;BME280;5284;50.446;7.904;2023-04-25T09:59:49;98106.19;;;9.00;78.37
10474;BME280;5284;50.446;7.904;2023-04-25T10:04:54;98111.19;;;9.93;75.40
10474;BME280;5284;50.446;7.904;2023-04-25T10:10:05;98106.06;;;10.20;77.06
10474;BME280;5284;50.446;7.904;2023-04-25T10:15:09;98110.56;;;9.80;73.51
10474;BME280;5284;50.446;7.904;2023-04-25T10:20:12;98108.47;;;10.23;74.65
10474;BME280;5284;50.446;7.904;2023-04-25T10:25:18;98108.72;;;10.76;72.66
10474;BME280;5284;50.446;7.904;2023-04-25T10:30:21;98113.06;;;10.87;72.33
10474;BME280;5284;50.446;7.904;2023-04-25T10:35:25;98112.38;;;10.94;66.22
10474;BME280;5284;50.446;7.904;2023-04-25T10:40:30;98123.34;;;11.37;65.49
10474;BME280;5284;50.446;7.904;2023-04-25T10:45:50;98122.88;;;11.05;61.34
10474;BME280;5284;50.446;7.904;2023-04-25T10:51:07;98117.28;;;10.04;63.70
10474;BME280;5284;50.446;7.904;2023-04-25T10:56:16;98131.34;;;10.35;66.49
10474;BME280;5284;50.446;7.904;2023-04-25T11:01:24;98126.28;;;10.51;68.88
10474;BME280;5284;50.446;7.904;2023-04-25T11:06:35;98144.28;;;10.00;68.09
10474;BME280;5284;50.446;7.904;2023-04-25T11:11:53;98139.81;;;9.61;71.54
10474;BME280;5284;50.446;7.904;2023-04-25T11:16:57;98156.22;;;9.36;71.24
10474;BME280;5284;50.446;7.904;2023-04-25T11:22:03;98156.00;;;9.78;70.49
10474;BME280;5284;50.446;7.904;2023-04-25T11:27:08;98157.88;;;10.64;69.42
10474;BME280;5284;50.446;7.904;2023-04-25T11:32:11;98166.13;;;10.90;65.38
10474;BME280;5284;50.446;7.904;2023-04-25T11:37:16;98161.09;;;10.96;63.95
10474;BME280;5284;50.446;7.904;2023-04-25T11:42:21;98166.41;;;10.87;62.91
10474;BME280;5284;50.446;7.904;2023-04-25T11:47:28;98154.19;;;11.03;61.16
10474;BME280;5284;50.446;7.904;2023-04-25T11:52:37;98149.56;;;11.05;62.18
10474;BME280;5284;50.446;7.904;2023-04-25T11:57:43;98148.75;;;11.87;58.40
10474;BME280;5284;50.446;7.904;2023-04-25T12:02:51;98145.25;;;12.14;57.70
10474;BME280;5284;50.446;7.904;2023-04-25T12:07:54;98150.34;;;13.04;56.55
10474;BME280;5284;50.446;7.904;2023-04-25T12:12:59;98153.28;;;13.36;55.16
10474;BME280;5284;50.446;7.904;2023-04-25T12:18:06;98157.78;;;12.30;55.47
10474;BME280;5284;50.446;7.904;2023-04-25T12:23:09;98171.31;;;11.75;56.62
10474;BME280;5284;50.446;7.904;2023-04-25T12:28:16;98167.56;;;11.95;57.41
10474;BME280;5284;50.446;7.904;2023-04-25T12:33:21;98184.84;;;11.64;57.98
10474;BME280;5284;50.446;7.904;2023-04-25T12:38:25;98182.88;;;11.66;57.75
10474;BME280;5284;50.446;7.904;2023-04-25T12:43:32;98192.53;;;11.77;57.02
10474;BME280;5284;50.446;7.904;2023-04-25T12:48:35;98185.16;;;14.39;51.68
10474;BME280;5284;50.446;7.904;2023-04-25T12:53:40;98191.00;;;14.92;49.95
10474;BME280;5284;50.446;7.904;2023-04-25T12:58:44;98191.50;;;15.11;48.07
10474;BME280;5284;50.446;7.904;2023-04-25T13:03:47;98175.94;;;14.08;49.33
10474;BME280;5284;50.446;7.904;2023-04-25T13:08:52;98183.66;;;13.27;51.65
10474;BME280;5284;50.446;7.904;2023-04-25T13:13:58;98191.13;;;12.09;54.08
10474;BME280;5284;50.446;7.904;2023-04-25T13:19:02;98197.22;;;11.46;56.54
10474;BME280;5284;50.446;7.904;2023-04-25T13:24:07;98206.56;;;11.04;58.29
10474;BME280;5284;50.446;7.904;2023-04-25T13:29:14;98214.16;;;10.80;61.47
10474;BME280;5284;50.446;7.904;2023-04-25T13:34:17;98217.19;;;10.48;62.94
10474;BME280;5284;50.446;7.904;2023-04-25T13:39:21;98222.75;;;10.16;65.53
10474;BME280;5284;50.446;7.904;2023-04-25T13:44:28;98230.53;;;10.38;65.17
10474;BME280;5284;50.446;7.904;2023-04-25T13:49:31;98233.47;;;10.45;62.14
10474;BME280;5284;50.446;7.904;2023-04-25T13:54:34;98221.03;;;10.73;59.98
10474;BME280;5284;50.446;7.904;2023-04-25T13:59:39;98227.66;;;12.18;57.02
10474;BME280;5284;50.446;7.904;2023-04-25T14:04:43;98219.41;;;12.56;56.32
10474;BME280;5284;50.446;7.904;2023-04-25T14:09:48;98224.84;;;12.46;53.15
10474;BME280;5284;50.446;7.904;2023-04-25T14:14:52;98212.56;;;13.66;50.64
10474;BME280;5284;50.446;7.904;2023-04-25T14:19:55;98210.69;;;13.84;51.46
10474;BME280;5284;50.446;7.904;2023-04-25T14:25:00;98213.34;;;15.16;49.10
10474;BME280;5284;50.446;7.904;2023-04-25T14:30:06;98207.84;;;13.60;48.65
10474;BME280;5284;50.446;7.904;2023-04-25T14:35:10;98211.53;;;17.85;44.33
10474;BME280;5284;50.446;7.904;2023-04-25T14:40:13;98208.66;;;15.02;45.91
10474;BME280;5284;50.446;7.904;2023-04-25T14:45:18;98212.53;;;14.50;47.12
10474;BME280;5284;50.446;7.904;2023-04-25T14:50:22;98216.88;;;13.34;48.68
10474;BME280;5284;50.446;7.904;2023-04-25T14:55:24;98218.44;;;12.74;50.63
10474;BME280;5284;50.446;7.904;2023-04-25T15:00:31;98227.41;;;11.75;51.48
10474;BME280;5284;50.446;7.904;2023-04-25T15:05:36;98233.63;;;11.47;52.46
10474;BME280;5284;50.446;7.904;2023-04-25T15:10:40;98231.28;;;10.97;53.22
10474;BME280;5284;50.446;7.904;2023-04-25T15:15:45;98239.41;;;10.67;54.44
10474;BME280;5284;50.446;7.904;2023-04-25T15:20:53;98245.53;;;10.39;52.34
10474;BME280;5284;50.446;7.904;2023-04-25T15:25:57;98238.81;;;10.45;52.92
10474;BME280;5284;50.446;7.904;2023-04-25T15:31:02;98242.53;;;11.00;50.93
10474;BME280;5284;50.446;7.904;2023-04-25T15:36:05;98241.69;;;11.09;52.12
10474;BME280;5284;50.446;7.904;2023-04-25T15:41:08;98243.91;;;10.95;52.47
10474;BME280;5284;50.446;7.904;2023-04-25T15:46:15;98249.41;;;11.12;52.19
10474;BME280;5284;50.446;7.904;2023-04-25T15:51:20;98255.31;;;11.06;53.02
10474;BME280;5284;50.446;7.904;2023-04-25T15:56:23;98253.34;;;11.27;52.36
10474;BME280;5284;50.446;7.904;2023-04-25T16:01:28;98253.31;;;12.38;49.58
10474;BME280;5284;50.446;7.904;2023-04-25T16:06:32;98255.78;;;13.63;47.18
10474;BME280;5284;50.446;7.904;2023-04-25T16:11:37;98256.47;;;16.73;43.36
10474;BME280;5284;50.446;7.904;2023-04-25T16:16:42;98253.56;;;14.84;43.68
10474;BME280;5284;50.446;7.904;2023-04-25T16:21:45;98258.25;;;14.07;43.86
10474;BME280;5284;50.446;7.904;2023-04-25T16:26:48;98256.06;;;13.00;45.74
10474;BME280;5284;50.446;7.904;2023-04-25T16:31:52;98264.13;;;15.51;43.53
10474;BME280;5284;50.446;7.904;2023-04-25T16:36:56;98261.22;;;23.33;32.17
10474;BME280;5284;50.446;7.904;2023-04-25T16:41:59;98273.09;;;25.63;30.70
10474;BME280;5284;50.446;7.904;2023-04-25T16:47:06;98266.75;;;19.69;35.71
10474;BME280;5284;50.446;7.904;2023-04-25T16:52:09;98280.22;;;15.59;41.84
10474;BME280;5284;50.446;7.904;2023-04-25T16:57:12;98270.88;;;13.29;46.07
10474;BME280;5284;50.446;7.904;2023-04-25T17:02:18;98280.69;;;12.22;48.45
10474;BME280;5284;50.446;7.904;2023-04-25T17:07:21;98290.59;;;11.57;50.77
10474;BME280;5284;50.446;7.904;2023-04-25T17:12:26;98299.66;;;10.88;52.16
10474;BME280;5284;50.446;7.904;2023-04-25T17:17:30;98296.34;;;10.47;54.76
10474;BME280;5284;50.446;7.904;2023-04-25T17:22:34;98306.28;;;10.06;56.42
10474;BME280;5284;50.446;7.904;2023-04-25T17:27:37;98307.56;;;10.99;54.96
10474;BME280;5284;50.446;7.904;2023-04-25T17:32:41;98321.28;;;10.37;56.05
10474;BME280;5284;50.446;7.904;2023-04-25T17:37:45;98324.97;;;10.55;56.89
10474;BME280;5284;50.446;7.904;2023-04-25T17:42:49;98325.13;;;10.53;57.80
10474;BME280;5284;50.446;7.904;2023-04-25T17:47:53;98330.63;;;10.22;57.83
10474;BME280;5284;50.446;7.904;2023-04-25T17:52:57;98325.81;;;9.95;59.32
10474;BME280;5284;50.446;7.904;2023-04-25T17:58:03;98332.06;;;9.64;61.06
10474;BME280;5284;50.446;7.904;2023-04-25T18:03:07;98338.88;;;9.37;63.36
10474;BME280;5284;50.446;7.904;2023-04-25T18:08:10;98335.84;;;9.30;64.14
10474;BME280;5284;50.446;7.904;2023-04-25T18:13:13;98343.59;;;9.02;66.30
10474;BME280;5284;50.446;7.904;2023-04-25T18:18:17;98352.84;;;8.87;67.89
10474;BME280;5284;50.446;7.904;2023-04-25T18:23:27;98358.66;;;8.70;69.48
10474;BME280;5284;50.446;7.904;2023-04-25T18:28:31;98359.41;;;8.50;72.55
10474;BME280;5284;50.446;7.904;2023-04-25T18:33:36;98372.69;;;8.39;74.89
10474;BME280;5284;50.446;7.904;2023-04-25T18:38:39;98366.91;;;8.23;76.23
10474;BME280;5284;50.446;7.904;2023-04-25T18:43:42;98378.69;;;8.08;79.48
10474;BME280;5284;50.446;7.904;2023-04-25T18:48:46;98387.59;;;7.96;80.21
10474;BME280;5284;50.446;7.904;2023-04-25T18:53:49;98394.94;;;7.82;80.20
10474;BME280;5284;50.446;7.904;2023-04-25T18:58:54;98408.06;;;7.72;80.21
10474;BME280;5284;50.446;7.904;2023-04-25T19:03:59;98413.91;;;7.54;86.15
10474;BME280;5284;50.446;7.904;2023-04-25T19:09:07;98414.69;;;7.44;86.24
10474;BME280;5284;50.446;7.904;2023-04-25T19:14:12;98417.94;;;7.36;86.82
10474;BME280;5284;50.446;7.904;2023-04-25T19:19:17;98418.22;;;7.21;89.77
10474;BME280;5284;50.446;7.904;2023-04-25T19:24:23;98428.38;;;7.03;93.07
10474;BME280;5284;50.446;7.904;2023-04-25T19:29:26;98423.81;;;7.05;89.78
10474;BME280;5284;50.446;7.904;2023-04-25T19:34:33;98416.63;;;6.95;98.07
10474;BME280;5284;50.446;7.904;2023-04-25T19:39:37;98426.22;;;6.85;100.00
10474;BME280;5284;50.446;7.904;2023-04-25T19:44:39;98433.19;;;6.86;97.43
10474;BME280;5284;50.446;7.904;2023-04-25T19:49:44;98430.66;;;6.84;95.54
10474;BME280;5284;50.446;7.904;2023-04-25T19:54:47;98434.47;;;6.80;96.33
10474;BME280;5284;50.446;7.904;2023-04-25T19:59:50;98438.19;;;6.78;96.42
10474;BME280;5284;50.446;7.904;2023-04-25T20:04:55;98447.22;;;6.75;94.55
10474;BME280;5284;50.446;7.904;2023-04-25T20:09:58;98444.34;;;6.78;93.58
10474;BME280;5284;50.446;7.904;2023-04-25T20:15:02;98447.94;;;6.77;95.77
10474;BME280;5284;50.446;7.904;2023-04-25T20:20:10;98452.50;;;6.75;95.59
10474;BME280;5284;50.446;7.904;2023-04-25T20:25:13;98457.06;;;6.73;94.86
10474;BME280;5284;50.446;7.904;2023-04-25T20:30:17;98455.25;;;6.74;95.15
10474;BME280;5284;50.446;7.904;2023-04-25T20:35:22;98453.03;;;6.68;95.14
10474;BME280;5284;50.446;7.904;2023-04-25T20:40:24;98464.72;;;6.65;95.80
10474;BME280;5284;50.446;7.904;2023-04-25T20:45:28;98457.91;;;6.61;95.43
10474;BME280;5284;50.446;7.904;2023-04-25T20:50:34;98463.44;;;6.58;95.42
10474;BME280;5284;50.446;7.904;2023-04-25T20:55:37;98473.63;;;6.52;98.33
10474;BME280;5284;50.446;7.904;2023-04-25T21:00:42;98476.50;;;6.49;98.84
10474;BME280;5284;50.446;7.904;2023-04-25T21:05:49;98473.22;;;6.45;99.98
10474;BME280;5284;50.446;7.904;2023-04-25T21:10:52;98470.03;;;6.40;100.00
10474;BME280;5284;50.446;7.904;2023-04-25T21:15:55;98469.28;;;6.26;100.00
10474;BME280;5284;50.446;7.904;2023-04-25T21:21:01;98468.03;;;6.19;100.00
10474;BME280;5284;50.446;7.904;2023-04-25T21:26:04;98471.81;;;5.90;100.00
10474;BME280;5284;50.446;7.904;2023-04-25T21:31:08;98466.41;;;5.92;100.00
10474;BME280;5284;50.446;7.904;2023-04-25T21:36:12;98464.97;;;5.74;100.00
10474;BME280;5284;50.446;7.904;2023-04-25T21:41:16;98471.91;;;5.62;100.00
10474;BME280;5284;50.446;7.904;2023-04-25T21:46:19;98477.28;;;5.48;100.00
10474;BME280;5284;50.446;7.904;2023-04-25T21:51:25;98472.19;;;5.45;100.00
10474;BME280;5284;50.446;7.904;2023-04-25T21:56:29;98477.03;;;5.39;100.00
10474;BME280;5284;50.446;7.904;2023-04-25T22:01:32;98486.53;;;5.29;100.00
10474;BME280;5284;50.446;7.904;2023-04-25T22:06:36;98493.31;;;5.19;100.00
10474;BME280;5284;50.446;7.904;2023-04-25T22:11:39;98499.50;;;5.05;100.00
10474;BME280;5284;50.446;7.904;2023-04-25T22:16:43;98509.81;;;4.96;100.00
10474;BME280;5284;50.446;7.904;2023-04-25T22:21:47;98517.34;;;4.88;100.00
10474;BME280;5284;50.446;7.904;2023-04-25T22:26:50;98508.03;;;4.82;100.00
10474;BME280;5284;50.446;7.904;2023-04-25T22:31:53;98522.94;;;4.83;100.00
10474;BME280;5284;50.446;7.904;2023-04-25T22:36:57;98538.13;;;4.80;100.00
10474;BME280;5284;50.446;7.904;2023-04-25T22:42:00;98539.00;;;4.80;100.00
10474;BME280;5284;50.446;7.904;2023-04-25T22:47:04;98547.25;;;4.74;100.00
10474;BME280;5284;50.446;7.904;2023-04-25T22:52:08;98545.13;;;4.67;100.00
10474;BME280;5284;50.446;7.904;2023-04-25T22:57:12;98546.25;;;4.63;100.00
10474;BME280;5284;50.446;7.904;2023-04-25T23:02:15;98552.00;;;4.55;100.00
10474;BME280;5284;50.446;7.904;2023-04-25T23:07:20;98553.69;;;4.43;100.00
10474;BME280;5284;50.446;7.904;2023-04-25T23:12:24;98550.91;;;4.16;100.00
10474;BME280;5284;50.446;7.904;2023-04-25T23:17:26;98549.53;;;3.95;100.00
10474;BME280;5284;50.446;7.904;2023-04-25T23:22:31;98552.41;;;3.77;100.00
10474;BME280;5284;50.446;7.904;2023-04-25T23:27:33;98551.31;;;3.65;100.00
10474;BME280;5284;50.446;7.904;2023-04-25T23:32:37;98559.22;;;3.65;100.00
10474;BME280;5284;50.446;7.904;2023-04-25T23:37:41;98565.84;;;3.57;100.00
10474;BME280;5284;50.446;7.904;2023-04-25T23:42:44;98561.13;;;3.48;100.00
10474;BME280;5284;50.446;7.904;2023-04-25T23:47:47;98554.66;;;3.38;100.00
10474;BME280;5284;50.446;7.904;2023-04-25T23:52:51;98563.06;;;3.13;100.00
10474;BME280;5284;50.446;7.904;2023-04-25T23:57:54;98565.97;;;3.09;100.00
